< < Back
Terminal Aerodrome Forecast


Current Version              Previous Versions:   1  2  3  4  5  6  7  8  9  

Terminal Aerodrome Forecast

026
FTUS42 KFFC 282100 AAA
TAFPDK
TAF AMD
KPDK 282144Z 2822/2918 29012G20KT P6SM FEW070
     FM290000 32009KT P6SM SKC
     FM291600 34012G18KT P6SM SCT050=



Latest METAR

650
SAUS70 KWBC 291500 RRI
MTRPDK
METAR KPDK 291453Z VRB05KT 10SM CLR 25/13 A3003 RMK AO2 SLP152 T02500133
51010 $


USA.gov is the U.S. government's official web portal to all federal, state and local government web resources and services.